Amoret, Missouri
Current Conditions -  °F | °C
As of 1:53 AM on Friday 31 Oct 2014 (Local Time) from KOJC Reporting Station
Clear Clear  
Wind Chill: 45°   Ceiling: Unl
Heat Index: 49°   Visibility: 10mi
Dew Point: 41°   Wind: 10mph
Humidity: 74%   Direction: 350°N
Pressure: 30.23"   Gusts: NA
Location:  38.26°N, 94.59°W
Report Text: KOJC 310653Z AUTO 35009KT 10SM CLR 09/05 A3023 RMK AO2 SLP234 T00940050
Loading
Personal Weather Stations






























Interactive Weather Map New forecast layout! Learn more

10-Day Weather Forecast

Advertisements
Track Severe Weather on mobile